Time;durP1;ratioP1;P1;durP2;ratioP2;P2;SDS_P1;SDS_P2;PMS_P1;PMS_P2;Temp;Humidity;BMP_temperature;BMP_pressure;BME280_temperature;BME280_humidity;BME280_pressure;Samples;Min_cycle;Max_cycle;Signal;HPM_P1;HPM_P2
2022/06/18 00:00:24;;;;;;;2.28;1.38;;;19.00;77.30;;;;;;5037289;28;20503;-71
2022/06/18 00:02:52;;;;;;;4.43;1.55;;;18.90;76.70;;;;;;5040700;28;20049;-72
2022/06/18 00:05:22;;;;;;;4.38;1.77;;;19.00;77.30;;;;;;5037735;28;20038;-71
2022/06/18 00:07:53;;;;;;;2.30;1.73;;;18.90;76.80;;;;;;5033892;28;20492;-71
2022/06/18 00:10:29;;;;;;;4.65;2.15;;;18.80;77.30;;;;;;5035029;28;20051;-71
2022/06/18 00:15:58;;;;;;;3.42;1.90;;;18.60;77.90;;;;;;5035795;28;20320;-72
2022/06/18 00:18:25;;;;;;;3.63;2.00;;;18.60;78.40;;;;;;5037923;28;20048;-71
2022/06/18 00:20:53;;;;;;;2.83;2.00;;;18.40;78.40;;;;;;5037047;28;20048;-71
2022/06/18 00:23:21;;;;;;;3.63;1.77;;;18.40;79.10;;;;;;5035168;28;20033;-72
2022/06/18 00:25:50;;;;;;;2.80;1.55;;;18.50;79.40;;;;;;5036088;28;20049;-71
2022/06/18 00:28:27;;;;;;;3.47;1.80;;;18.50;78.80;;;;;;5023461;28;20053;-71
2022/06/18 00:30:55;;;;;;;3.63;2.03;;;18.60;79.00;;;;;;5032233;28;20128;-71
2022/06/18 00:33:23;;;;;;;4.15;2.13;;;18.50;79.20;;;;;;5017180;28;20079;-71
2022/06/18 00:35:56;;;;;;;3.35;1.50;;;18.60;79.20;;;;;;5024892;28;20156;-71
2022/06/18 00:38:28;;;;;;;;;;;18.20;79.10;;;;;;5049962;28;20496;-71
2022/06/18 00:40:56;;;;;;;2.73;1.37;;;18.30;79.90;;;;;;5020939;28;20606;-71
2022/06/18 00:43:55;;;;;;;3.08;1.33;;;18.30;80.30;;;;;;5036568;28;20354;-71
2022/06/18 00:46:45;;;;;;;1.80;1.23;;;18.40;79.50;;;;;;5040688;28;20048;-71
2022/06/18 00:49:39;;;;;;;4.80;1.20;;;18.20;78.10;;;;;;5033662;28;20294;-70
2022/06/18 00:52:21;;;;;;;2.55;1.00;;;18.30;78.20;;;;;;5037553;28;20049;-71
2022/06/18 00:55:03;;;;;;;3.70;1.40;;;18.20;77.30;;;;;;5031019;28;20149;-71
2022/06/18 00:57:47;;;;;;;2.17;0.98;;;18.20;77.40;;;;;;5023047;28;20057;-71
2022/06/18 01:00:20;;;;;;;2.45;1.20;;;18.20;77.10;;;;;;5037149;28;20049;-71
2022/06/18 01:02:48;;;;;;;;;;;18.20;77.10;;;;;;5036099;28;20047;-71
2022/06/18 01:05:23;;;;;;;3.47;1.10;;;18.20;76.60;;;;;;5037396;28;20002;-72
2022/06/18 01:08:04;;;;;;;1.33;0.70;;;17.90;76.30;;;;;;5038406;28;20124;-72
2022/06/18 01:10:38;;;;;;;2.83;0.73;;;17.80;76.30;;;;;;5033556;28;20037;-72
2022/06/18 01:13:10;;;;;;;2.60;0.90;;;17.90;76.40;;;;;;5034782;28;20810;-71
2022/06/18 01:15:43;;;;;;;3.97;1.10;;;18.00;75.40;;;;;;5019094;28;20040;-72
2022/06/18 01:18:12;;;;;;;2.17;1.10;;;17.80;76.30;;;;;;5036999;28;20145;-72
2022/06/18 01:20:51;;;;;;;4.32;0.90;;;17.50;77.10;;;;;;5036452;28;20041;-72
2022/06/18 01:23:40;;;;;;;1.92;0.85;;;17.60;77.60;;;;;;5037562;28;20380;-72
2022/06/18 01:26:10;;;;;;;2.03;1.00;;;17.70;77.40;;;;;;5034598;28;20111;-72
2022/06/18 01:28:38;;;;;;;1.60;0.55;;;17.80;77.00;;;;;;5038900;28;20053;-72
2022/06/18 01:31:07;;;;;;;1.40;0.60;;;17.80;75.90;;;;;;5035391;28;20102;-73
2022/06/18 01:33:36;;;;;;;1.40;0.70;;;17.70;76.40;;;;;;5022080;28;20091;-72
2022/06/18 01:36:07;;;;;;;2.60;0.77;;;17.70;76.30;;;;;;5035316;28;20045;-73
2022/06/18 01:38:43;;;;;;;3.38;0.68;;;17.80;76.40;;;;;;5036931;28;20045;-73
2022/06/18 01:41:49;;;;;;;0.95;0.68;;;17.90;76.00;;;;;;5035625;28;20114;-73
2022/06/18 01:44:37;;;;;;;1.48;0.60;;;17.80;75.50;;;;;;5038979;28;20488;-72
2022/06/18 01:47:11;;;;;;;3.15;0.70;;;17.60;75.90;;;;;;5023549;28;20080;-72
2022/06/18 01:49:44;;;;;;;1.23;0.80;;;17.80;75.70;;;;;;5050766;28;20469;-72
2022/06/18 01:52:15;;;;;;;2.22;0.75;;;17.70;75.50;;;;;;5037608;28;20056;-72
2022/06/18 01:54:49;;;;;;;1.00;0.50;;;17.60;75.60;;;;;;5034577;28;20055;-73
2022/06/18 01:57:25;;;;;;;1.25;0.52;;;17.60;75.70;;;;;;5037467;28;20045;-72
2022/06/18 01:59:57;;;;;;;2.30;0.55;;;17.60;75.90;;;;;;5033821;28;20558;-72
2022/06/18 02:02:42;;;;;;;2.75;0.65;;;17.70;75.80;;;;;;5033165;28;20052;-72
2022/06/18 02:05:11;;;;;;;2.80;0.73;;;17.90;76.10;;;;;;5038275;28;20037;-72
2022/06/18 02:07:40;;;;;;;0.98;0.43;;;17.90;75.00;;;;;;5021211;28;20396;-73
2022/06/18 02:10:15;;;;;;;1.63;0.60;;;17.60;75.90;;;;;;5049108;28;20037;-72
2022/06/18 02:12:42;;;;;;;0.90;0.50;;;17.50;76.50;;;;;;5035570;28;20100;-72
2022/06/18 02:15:21;;;;;;;1.63;0.60;;;17.60;76.10;;;;;;5032328;28;20111;-72
2022/06/18 02:17:48;;;;;;;4.72;0.70;;;17.40;76.50;;;;;;5021563;28;20055;-72
2022/06/18 02:20:25;;;;;;;1.77;0.70;;;17.50;76.40;;;;;;5039501;28;20041;-73
2022/06/18 02:22:56;;;;;;;1.45;0.50;;;17.60;76.30;;;;;;5035127;28;20477;-72
2022/06/18 02:25:26;;;;;;;1.08;0.50;;;17.80;75.80;;;;;;5038778;28;20132;-72
2022/06/18 02:28:21;;;;;;;1.70;0.40;;;17.90;76.00;;;;;;5030407;28;20633;-72
2022/06/18 02:30:48;;;;;;;1.23;0.60;;;17.90;76.00;;;;;;5034225;28;20061;-73
2022/06/18 02:33:45;;;;;;;0.82;0.50;;;17.70;75.60;;;;;;5029979;28;20063;-72
2022/06/18 02:36:23;;;;;;;2.17;0.60;;;17.70;75.90;;;;;;5036114;28;20548;-73
2022/06/18 02:38:57;;;;;;;1.45;0.70;;;17.80;76.10;;;;;;5037128;28;20160;-73
2022/06/18 02:41:25;;;;;;;1.45;0.60;;;17.80;76.30;;;;;;5029491;28;20099;-72
2022/06/18 02:43:52;;;;;;;1.20;0.60;;;17.80;77.80;;;;;;5036808;28;20044;-72
2022/06/18 02:46:20;;;;;;;2.70;0.70;;;17.80;76.50;;;;;;5022217;28;20049;-72
2022/06/18 02:48:47;;;;;;;1.20;0.70;;;17.70;76.70;;;;;;5033159;28;20061;-72
2022/06/18 02:51:14;;;;;;;1.55;0.70;;;17.60;77.00;;;;;;5037494;28;20529;-73
2022/06/18 02:53:43;;;;;;;2.58;0.70;;;17.60;77.90;;;;;;5018533;28;20042;-72
2022/06/18 02:56:14;;;;;;;2.58;0.80;;;17.60;77.70;;;;;;5035985;28;20132;-72
2022/06/18 02:58:44;;;;;;;1.40;0.70;;;17.70;79.90;;;;;;5038579;28;20049;-72
2022/06/18 03:01:17;;;;;;;1.75;0.50;;;17.70;77.60;;;;;;5047736;28;20073;-72
2022/06/18 03:03:53;;;;;;;3.70;1.00;;;17.70;77.30;;;;;;5031810;28;20140;-72
2022/06/18 03:06:23;;;;;;;2.00;0.60;;;17.70;77.70;;;;;;5030819;28;20045;-72
2022/06/18 03:08:53;;;;;;;1.10;0.50;;;17.60;78.30;;;;;;5036372;28;20037;-72
2022/06/18 03:14:11;;;;;;;1.38;0.50;;;17.70;78.30;;;;;;5036528;28;20075;-72
2022/06/18 03:16:38;;;;;;;1.95;1.08;;;17.70;78.00;;;;;;5037098;28;20480;-72
2022/06/18 03:19:05;;;;;;;0.95;0.60;;;17.50;78.50;;;;;;5037664;28;20072;-73
2022/06/18 03:21:41;;;;;;;2.78;0.70;;;17.50;78.40;;;;;;5041226;28;20060;-73
2022/06/18 03:24:10;;;;;;;3.85;0.80;;;17.30;78.70;;;;;;5037876;28;20645;-72
2022/06/18 03:26:38;;;;;;;0.77;0.50;;;17.10;79.10;;;;;;5040586;28;20045;-72
2022/06/18 03:29:12;;;;;;;1.67;0.70;;;17.20;79.60;;;;;;5026134;28;20052;-72
2022/06/18 03:31:40;;;;;;;3.80;0.77;;;17.20;79.60;;;;;;5034336;28;20049;-72
2022/06/18 03:34:07;;;;;;;1.13;0.60;;;17.20;79.40;;;;;;5021203;28;20045;-72
2022/06/18 03:36:35;;;;;;;2.92;1.20;;;17.40;79.50;;;;;;5028713;28;20056;-72
2022/06/18 03:39:03;;;;;;;3.72;0.60;;;17.50;78.90;;;;;;5034016;28;20052;-72
2022/06/18 03:41:31;;;;;;;1.52;0.60;;;17.60;78.90;;;;;;5037849;28;20038;-72
2022/06/18 03:43:58;;;;;;;2.42;1.30;;;17.30;79.00;;;;;;5049218;28;20134;-72
2022/06/18 03:46:29;;;;;;;2.78;0.90;;;17.30;79.30;;;;;;5044161;28;20033;-72
2022/06/18 03:49:02;;;;;;;0.82;0.43;;;17.40;79.80;;;;;;5039781;28;20132;-72
2022/06/18 03:51:33;;;;;;;1.42;0.60;;;17.40;79.60;;;;;;5034109;28;20078;-72
2022/06/18 03:54:01;;;;;;;1.58;0.70;;;17.40;79.20;;;;;;5022278;28;20132;-71
2022/06/18 03:56:31;;;;;;;1.50;0.80;;;17.60;78.90;;;;;;5037441;28;20041;-72
2022/06/18 03:58:59;;;;;;;2.35;0.80;;;17.60;78.50;;;;;;5025385;28;20049;-72
2022/06/18 04:01:32;;;;;;;2.92;0.50;;;17.80;78.60;;;;;;5036478;28;20065;-72
2022/06/18 04:04:02;;;;;;;2.53;0.82;;;17.90;79.30;;;;;;5039111;28;20042;-72
2022/06/18 04:06:38;;;;;;;1.58;0.82;;;18.00;78.60;;;;;;5037268;28;20052;-72
2022/06/18 04:09:25;;;;;;;1.30;0.73;;;18.10;78.10;;;;;;5032348;28;20041;-71
2022/06/18 04:11:53;;;;;;;1.23;0.70;;;18.10;78.10;;;;;;5020756;28;20054;-72
2022/06/18 04:14:20;;;;;;;1.17;0.68;;;18.10;79.10;;;;;;5037179;28;20041;-72
2022/06/18 04:17:02;;;;;;;2.17;1.05;;;18.20;80.20;;;;;;5035413;28;20380;-73
2022/06/18 04:19:30;;;;;;;1.75;0.60;;;18.20;77.70;;;;;;5024200;28;20049;-72
2022/06/18 04:21:58;;;;;;;2.70;0.55;;;18.30;80.70;;;;;;5038528;28;20051;-72
2022/06/18 04:24:40;;;;;;;3.35;0.45;;;18.50;79.00;;;;;;5036767;28;20136;-72
2022/06/18 04:27:08;;;;;;;2.97;0.85;;;18.60;78.20;;;;;;5024256;28;21214;-72
2022/06/18 04:29:35;;;;;;;4.03;0.70;;;18.60;76.90;;;;;;5022908;28;20481;-72
2022/06/18 04:32:04;;;;;;;2.83;0.75;;;18.70;76.80;;;;;;5052065;28;20038;-72
2022/06/18 04:34:31;;;;;;;2.58;0.80;;;18.60;75.60;;;;;;5022828;28;20056;-72
2022/06/18 04:37:24;;;;;;;3.33;0.65;;;18.60;75.70;;;;;;5038400;28;20079;-72
2022/06/18 04:40:17;;;;;;;2.22;0.75;;;18.60;76.60;;;;;;5037089;28;20144;-72
2022/06/18 04:43:13;;;;;;;3.53;1.02;;;18.80;76.10;;;;;;5036217;28;20057;-72
2022/06/18 04:45:47;;;;;;;1.80;0.82;;;18.60;76.40;;;;;;5023464;28;20127;-72
2022/06/18 04:48:22;;;;;;;2.70;0.70;;;18.60;77.10;;;;;;5033243;28;20033;-72
2022/06/18 04:50:51;;;;;;;4.03;0.90;;;18.70;76.70;;;;;;5022136;28;20465;-72
2022/06/18 04:53:19;;;;;;;3.60;0.90;;;18.70;77.00;;;;;;5020832;28;20534;-72
2022/06/18 04:55:51;;;;;;;1.95;0.70;;;18.70;76.10;;;;;;5038499;28;20056;-72
2022/06/18 04:58:18;;;;;;;1.80;0.68;;;18.70;77.00;;;;;;5047414;28;20064;-72
2022/06/18 05:00:53;;;;;;;2.08;0.88;;;18.90;77.00;;;;;;5022758;28;20567;-73
2022/06/18 05:03:30;;;;;;;8.13;1.00;;;19.10;77.00;;;;;;5021360;28;20052;-72
2022/06/18 05:06:18;;;;;;;3.58;1.00;;;19.30;76.60;;;;;;5013471;28;20061;-72
2022/06/18 05:09:08;;;;;;;4.82;1.10;;;19.30;75.70;;;;;;5005998;28;22740;-72
2022/06/18 05:11:57;;;;;;;3.70;0.88;;;19.30;76.30;;;;;;5018820;28;20139;-74
2022/06/18 05:14:37;;;;;;;3.33;0.90;;;19.60;76.10;;;;;;4995357;28;20049;-74
2022/06/18 05:17:26;;;;;;;2.50;1.00;;;19.90;74.90;;;;;;5003721;28;20045;-73
2022/06/18 05:19:54;;;;;;;8.13;1.75;;;20.00;72.70;;;;;;5001010;28;20049;-74
2022/06/18 05:22:22;;;;;;;4.25;1.00;;;20.30;72.90;;;;;;5014516;28;20072;-74
2022/06/18 05:24:53;;;;;;;4.63;1.00;;;20.20;71.90;;;;;;4989919;28;20053;-74
2022/06/18 05:27:28;;;;;;;2.67;0.88;;;20.50;71.20;;;;;;5002647;28;20048;-74
2022/06/18 05:29:58;;;;;;;2.67;1.38;;;20.50;71.10;;;;;;5004666;28;20053;-74
2022/06/18 05:32:36;;;;;;;2.30;1.15;;;20.20;72.20;;;;;;4988955;28;22385;-74
2022/06/18 05:35:04;;;;;;;3.53;1.00;;;20.10;72.90;;;;;;5002616;28;20057;-74
2022/06/18 05:37:33;;;;;;;2.95;1.27;;;20.00;73.60;;;;;;5002522;28;20041;-74
2022/06/18 05:40:03;;;;;;;3.58;1.20;;;20.20;72.20;;;;;;5003056;28;20056;-74
2022/06/18 05:42:31;;;;;;;2.97;0.70;;;20.50;71.30;;;;;;5002189;28;20113;-74
2022/06/18 05:44:58;;;;;;;2.35;0.88;;;20.70;71.30;;;;;;4986019;28;20044;-73
2022/06/18 05:47:28;;;;;;;2.97;0.90;;;20.90;69.30;;;;;;5015055;28;20052;-74
2022/06/18 05:49:57;;;;;;;3.20;1.27;;;20.90;68.40;;;;;;5000922;28;20401;-73
2022/06/18 05:52:29;;;;;;;1.98;0.98;;;20.70;69.10;;;;;;5004033;28;20056;-74
2022/06/18 05:55:02;;;;;;;2.03;1.10;;;21.10;70.00;;;;;;5003599;28;20045;-74
2022/06/18 05:57:51;;;;;;;2.72;1.10;;;21.40;69.50;;;;;;5004082;28;20041;-75
2022/06/18 06:00:25;;;;;;;2.90;1.20;;;21.70;70.20;;;;;;5003025;28;20045;-74
2022/06/18 06:02:54;;;;;;;4.93;1.15;;;21.90;68.30;;;;;;5001364;28;20045;-75
2022/06/18 06:05:21;;;;;;;3.67;1.20;;;22.00;67.50;;;;;;5013854;28;20107;-75
2022/06/18 06:07:50;;;;;;;2.72;1.10;;;22.10;66.80;;;;;;5021034;28;20053;-75
2022/06/18 06:13:18;;;;;;;2.45;1.30;;;22.30;66.70;;;;;;5006906;28;20092;-75
2022/06/18 06:15:46;;;;;;;2.83;1.35;;;22.60;67.00;;;;;;5004426;28;20124;-74
2022/06/18 06:18:15;;;;;;;2.55;0.90;;;22.70;65.30;;;;;;5002487;28;20723;-75
2022/06/18 06:20:45;;;;;;;3.85;1.20;;;22.90;64.40;;;;;;5005019;28;21094;-75
2022/06/18 06:23:13;;;;;;;2.47;1.20;;;22.80;60.90;;;;;;5004768;28;20079;-75
2022/06/18 06:25:42;;;;;;;2.80;1.15;;;22.90;62.00;;;;;;4993564;28;20873;-75
2022/06/18 06:28:16;;;;;;;1.85;1.00;;;23.00;61.50;;;;;;5002987;28;20104;-76
2022/06/18 06:30:43;;;;;;;2.85;0.80;;;23.20;61.80;;;;;;5003779;28;20057;-75
2022/06/18 06:33:10;;;;;;;3.50;0.88;;;23.20;61.20;;;;;;5003208;28;20045;-75
2022/06/18 06:35:38;;;;;;;2.47;0.77;;;23.50;63.70;;;;;;5004797;28;20057;-75
2022/06/18 06:38:05;;;;;;;1.80;1.00;;;23.60;60.80;;;;;;5008648;28;20126;-75
2022/06/18 06:40:34;;;;;;;2.72;1.23;;;23.70;62.30;;;;;;5012618;28;20047;-75
2022/06/18 06:43:01;;;;;;;3.05;0.88;;;23.70;60.80;;;;;;5007312;28;20050;-75
2022/06/18 06:45:32;;;;;;;2.17;1.05;;;23.70;58.60;;;;;;5009244;28;22560;-75
2022/06/18 06:48:01;;;;;;;1.63;0.70;;;23.80;57.50;;;;;;5010078;28;20048;-75
2022/06/18 06:50:30;;;;;;;3.92;0.45;;;23.50;59.70;;;;;;4997447;28;20077;-75
2022/06/18 06:52:57;;;;;;;4.30;0.65;;;23.80;59.90;;;;;;5007206;28;20053;-75
2022/06/18 06:58:12;;;;;;;3.35;0.60;;;24.10;58.10;;;;;;5007301;28;20049;-75
2022/06/18 07:00:43;;;;;;;1.42;0.60;;;24.20;57.90;;;;;;5006679;28;20087;-76
2022/06/18 07:03:12;;;;;;;4.35;0.95;;;24.30;55.40;;;;;;5009025;28;20060;-76
2022/06/18 07:05:39;;;;;;;3.03;0.60;;;24.20;56.00;;;;;;5024735;28;20052;-76
2022/06/18 07:08:07;;;;;;;1.33;0.60;;;24.30;56.10;;;;;;5008609;28;20045;-76
2022/06/18 07:10:35;;;;;;;1.58;0.60;;;24.30;55.10;;;;;;5009458;28;22742;-76
2022/06/18 07:13:02;;;;;;;2.78;0.60;;;24.50;57.30;;;;;;5005811;28;20056;-74
2022/06/18 07:15:30;;;;;;;1.13;0.60;;;24.60;57.30;;;;;;5010972;28;20051;-76
2022/06/18 07:17:58;;;;;;;3.53;0.63;;;24.80;55.10;;;;;;5008525;28;20045;-76
2022/06/18 07:20:25;;;;;;;0.93;0.40;;;24.80;55.10;;;;;;5009390;28;20995;-75
2022/06/18 07:22:54;;;;;;;0.75;0.50;;;24.60;56.30;;;;;;4995492;28;20054;-74
2022/06/18 07:25:21;;;;;;;2.05;0.80;;;24.90;53.00;;;;;;5009908;28;20950;-76
2022/06/18 07:27:52;;;;;;;1.73;0.35;;;24.80;51.10;;;;;;5007264;28;20053;-76
2022/06/18 07:30:20;;;;;;;0.57;0.30;;;24.90;52.30;;;;;;5009690;28;20065;-75
2022/06/18 07:32:49;;;;;;;1.67;0.52;;;24.90;50.90;;;;;;5011641;28;20049;-75
2022/06/18 07:35:22;;;;;;;1.40;0.43;;;24.90;52.20;;;;;;5015777;28;20139;-76
2022/06/18 07:37:51;;;;;;;2.15;0.60;;;25.00;53.00;;;;;;5007232;28;20061;-75
2022/06/18 07:40:18;;;;;;;2.13;0.52;;;25.00;51.30;;;;;;5012043;28;20048;-75
2022/06/18 07:42:48;;;;;;;2.58;0.40;;;25.00;54.20;;;;;;4989651;28;20049;-75
2022/06/18 07:45:21;;;;;;;1.20;0.40;;;25.10;52.10;;;;;;5010521;28;20045;-76
2022/06/18 07:47:49;;;;;;;1.13;0.60;;;25.30;52.40;;;;;;5010545;28;20046;-75
2022/06/18 07:50:18;;;;;;;2.03;0.73;;;25.30;52.20;;;;;;5024115;28;20052;-74
2022/06/18 07:52:45;;;;;;;1.20;0.47;;;25.10;51.10;;;;;;5005801;28;20143;-74
2022/06/18 07:55:22;;;;;;;1.85;0.50;;;24.60;51.80;;;;;;5010332;28;20068;-74
2022/06/18 07:57:49;;;;;;;1.77;0.50;;;24.30;52.90;;;;;;5012259;28;20053;-74
2022/06/18 08:00:19;;;;;;;3.42;0.60;;;24.50;52.90;;;;;;5007933;28;20045;-74
2022/06/18 08:02:47;;;;;;;4.05;0.57;;;24.70;53.50;;;;;;5013148;28;20053;-75
2022/06/18 08:05:23;;;;;;;2.90;1.05;;;24.70;53.30;;;;;;5029804;28;20088;-75
2022/06/18 08:07:52;;;;;;;1.48;0.80;;;24.90;54.20;;;;;;5032383;28;20053;-74
2022/06/18 08:10:42;;;;;;;0.85;0.30;;;24.70;51.40;;;;;;5023930;28;20041;-74
2022/06/18 08:13:09;;;;;;;3.20;0.60;;;24.60;53.90;;;;;;5015653;28;20498;-74
2022/06/18 08:15:41;;;;;;;2.28;0.77;;;24.30;53.70;;;;;;5005260;28;22892;-74
2022/06/18 08:18:09;;;;;;;2.55;0.90;;;24.40;54.30;;;;;;5018094;28;20041;-74
2022/06/18 08:21:00;;;;;;;2.28;0.75;;;24.70;55.00;;;;;;5014293;28;20046;-75
2022/06/18 08:23:28;;;;;;;1.17;0.63;;;25.10;54.70;;;;;;5007748;28;20099;-73
2022/06/18 08:25:55;;;;;;;2.58;0.80;;;25.30;55.40;;;;;;5009155;28;20049;-75
2022/06/18 08:28:22;;;;;;;2.20;0.88;;;25.40;52.90;;;;;;5006634;28;20136;-74
2022/06/18 08:30:49;;;;;;;2.05;0.80;;;25.30;52.20;;;;;;5012463;28;20050;-75
2022/06/18 08:33:17;;;;;;;1.40;1.02;;;25.30;51.50;;;;;;5015475;28;20056;-75
2022/06/18 08:35:44;;;;;;;2.80;1.00;;;25.30;51.80;;;;;;5011070;28;20037;-74
2022/06/18 08:38:14;;;;;;;2.38;0.80;;;25.50;53.50;;;;;;5013690;28;20052;-74
2022/06/18 08:40:56;;;;;;;2.42;0.73;;;25.50;52.20;;;;;;5016599;28;20059;-75
2022/06/18 08:43:48;;;;;;;2.17;0.85;;;25.50;52.10;;;;;;5017873;28;20654;-74
2022/06/18 08:46:22;;;;;;;2.60;1.23;;;25.40;53.70;;;;;;5017396;28;22735;-74
2022/06/18 08:48:56;;;;;;;1.30;0.73;;;25.80;53.00;;;;;;5007532;28;20049;-74
2022/06/18 08:52:02;;;;;;;1.33;0.82;;;25.80;52.20;;;;;;5010093;28;20053;-75
2022/06/18 08:55:16;;;;;;;4.22;1.48;;;25.90;53.40;;;;;;4997210;28;20053;-76
2022/06/18 08:57:49;;;;;;;1.58;0.80;;;25.30;50.90;;;;;;4997110;28;20084;-75
2022/06/18 09:00:35;;;;;;;1.63;0.90;;;25.20;54.50;;;;;;5021262;28;20061;-74
2022/06/18 09:03:11;;;;;;;2.92;1.55;;;25.60;55.00;;;;;;4983459;28;20565;-75
2022/06/18 09:05:58;;;;;;;2.23;1.07;;;25.60;55.00;;;;;;5004222;28;20462;-75
2022/06/18 09:09:01;;;;;;;2.13;1.10;;;25.90;54.30;;;;;;5017060;28;20677;-75
2022/06/18 09:11:57;;;;;;;3.78;1.83;;;25.50;51.90;;;;;;5003552;28;20053;-76
2022/06/18 09:14:40;;;;;;;1.75;1.08;;;25.60;52.40;;;;;;5010043;28;20154;-75
2022/06/18 09:17:34;;;;;;;1.88;1.10;;;25.70;51.10;;;;;;5017421;28;20056;-74
2022/06/18 09:20:10;;;;;;;2.42;1.45;;;25.50;51.10;;;;;;4994128;28;20132;-75
2022/06/18 09:22:50;;;;;;;1.88;1.17;;;25.60;52.90;;;;;;5013939;28;21063;-75
2022/06/18 09:25:20;;;;;;;1.85;1.50;;;25.00;52.40;;;;;;5017191;28;20050;-75
2022/06/18 09:28:09;;;;;;;1.55;1.23;;;24.70;52.90;;;;;;5010787;28;20037;-75
2022/06/18 09:30:54;;;;;;;2.20;1.30;;;25.00;52.50;;;;;;5010227;28;20167;-75
2022/06/18 09:33:30;;;;;;;2.97;1.55;;;25.10;53.40;;;;;;5010802;28;20055;-75
2022/06/18 09:36:05;;;;;;;2.75;1.42;;;25.40;51.20;;;;;;5029455;28;20110;-75
2022/06/18 09:38:39;;;;;;;2.97;1.30;;;25.60;53.50;;;;;;5023128;28;20063;-75
2022/06/18 09:41:17;;;;;;;3.95;1.45;;;25.90;53.00;;;;;;5014723;28;20196;-76
2022/06/18 09:44:04;;;;;;;2.50;1.25;;;25.90;52.50;;;;;;5013691;28;20136;-75
2022/06/18 09:46:40;;;;;;;2.45;1.30;;;25.90;53.10;;;;;;5008327;28;22957;-75
2022/06/18 09:49:07;;;;;;;2.45;1.55;;;26.10;52.60;;;;;;4994087;28;20053;-74
2022/06/18 09:51:55;;;;;;;2.33;1.02;;;26.10;54.00;;;;;;5009960;28;20829;-75
2022/06/18 09:54:28;;;;;;;2.38;1.10;;;26.00;51.10;;;;;;4998395;28;20052;-75
2022/06/18 09:57:00;;;;;;;3.55;1.67;;;25.90;50.80;;;;;;5020003;28;21032;-75
2022/06/18 09:59:33;;;;;;;2.28;1.27;;;25.40;51.00;;;;;;5020316;28;20082;-75
2022/06/18 10:02:01;;;;;;;2.15;1.30;;;25.00;51.70;;;;;;5016530;28;20041;-75
2022/06/18 10:07:24;;;;;;;1.13;0.98;;;25.40;52.50;;;;;;5000785;28;20048;-74
2022/06/18 10:10:02;;;;;;;1.60;1.08;;;25.70;49.70;;;;;;5003150;28;20056;-76
2022/06/18 10:12:37;;;;;;;2.55;1.10;;;25.80;50.10;;;;;;5012117;28;20065;-75
2022/06/18 10:15:07;;;;;;;1.73;1.10;;;25.90;50.00;;;;;;5016758;28;20056;-75
2022/06/18 10:17:50;;;;;;;3.05;1.58;;;25.70;48.90;;;;;;5014597;28;20055;-75
2022/06/18 10:20:31;;;;;;;1.65;1.05;;;25.70;49.90;;;;;;5020276;28;22545;-75
2022/06/18 10:23:12;;;;;;;1.60;0.90;;;25.70;50.60;;;;;;5011766;28;20061;-76
2022/06/18 10:26:00;;;;;;;2.15;1.38;;;25.50;51.20;;;;;;5014497;28;20116;-76
2022/06/18 10:28:46;;;;;;;1.30;0.90;;;25.80;51.30;;;;;;5021279;28;20051;-75
2022/06/18 10:31:32;;;;;;;4.22;1.13;;;25.90;52.00;;;;;;5014361;28;20140;-76
2022/06/18 10:34:23;;;;;;;0.93;0.70;;;26.00;50.10;;;;;;5017774;28;20056;-75
2022/06/18 10:36:50;;;;;;;2.72;0.80;;;26.10;51.90;;;;;;5026960;28;20068;-75
2022/06/18 10:39:31;;;;;;;3.72;1.42;;;26.00;49.50;;;;;;5019705;28;20068;-75
2022/06/18 10:42:29;;;;;;;1.75;0.90;;;25.70;49.90;;;;;;5001378;28;20053;-74
2022/06/18 10:45:33;;;;;;;2.97;0.80;;;25.70;49.60;;;;;;5010943;28;20052;-76
2022/06/18 10:48:01;;;;;;;1.23;0.73;;;25.90;49.70;;;;;;5014784;28;20057;-75
2022/06/18 10:50:40;;;;;;;1.80;0.80;;;26.10;50.30;;;;;;5012349;28;20049;-75
2022/06/18 10:53:13;;;;;;;1.60;0.80;;;26.10;49.10;;;;;;5008365;28;20190;-75
2022/06/18 10:55:41;;;;;;;3.22;0.77;;;26.00;49.00;;;;;;5012877;28;20748;-76
2022/06/18 10:58:11;;;;;;;4.50;1.00;;;25.70;47.50;;;;;;5030639;28;20102;-75
2022/06/18 11:00:40;;;;;;;1.77;1.30;;;25.90;48.50;;;;;;5000285;28;20857;-75
2022/06/18 11:03:23;;;;;;;2.10;1.00;;;25.90;49.20;;;;;;5006519;28;20059;-72
2022/06/18 11:05:50;;;;;;;2.08;0.80;;;25.70;49.10;;;;;;5026020;28;20056;-76
2022/06/18 11:08:29;;;;;;;1.13;0.73;;;25.80;49.60;;;;;;5006371;28;20132;-75
2022/06/18 11:11:06;;;;;;;2.40;1.10;;;25.60;48.10;;;;;;5017715;28;20048;-76
2022/06/18 11:13:39;;;;;;;2.95;0.90;;;25.60;48.70;;;;;;4996938;28;20057;-75
2022/06/18 11:16:27;;;;;;;2.78;0.90;;;25.70;50.00;;;;;;5012610;28;20080;-75
2022/06/18 11:19:13;;;;;;;1.77;1.00;;;25.90;50.40;;;;;;5012390;28;20247;-76
2022/06/18 11:21:45;;;;;;;2.15;0.90;;;26.00;48.90;;;;;;5021480;28;20045;-75
2022/06/18 11:24:13;;;;;;;1.25;0.80;;;25.90;47.90;;;;;;5022186;28;20080;-75
2022/06/18 11:26:52;;;;;;;1.02;0.70;;;26.00;47.70;;;;;;5022040;28;20060;-75
2022/06/18 11:29:29;;;;;;;3.72;0.90;;;25.80;47.60;;;;;;5034195;28;20084;-75
2022/06/18 11:31:59;;;;;;;0.82;0.50;;;26.00;48.90;;;;;;5029826;28;20439;-76
2022/06/18 11:34:37;;;;;;;3.00;0.60;;;25.80;48.60;;;;;;5018291;28;20053;-75
2022/06/18 11:37:25;;;;;;;1.85;0.60;;;25.90;48.60;;;;;;5023037;28;20136;-76
2022/06/18 11:40:18;;;;;;;1.67;0.70;;;26.00;48.40;;;;;;5022211;28;20507;-77
2022/06/18 11:43:06;;;;;;;3.10;1.10;;;26.10;48.90;;;;;;5018058;28;20077;-75
2022/06/18 11:45:36;;;;;;;3.55;1.10;;;26.10;49.30;;;;;;5015911;28;20045;-75
2022/06/18 11:48:27;;;;;;;1.35;0.68;;;26.20;50.50;;;;;;4996407;28;20060;-75
2022/06/18 11:51:02;;;;;;;1.15;0.80;;;26.10;49.30;;;;;;5004960;28;20078;-74
2022/06/18 11:53:37;;;;;;;1.55;0.60;;;26.30;49.90;;;;;;5016205;28;20098;-75
2022/06/18 11:56:15;;;;;;;1.67;0.80;;;26.40;50.30;;;;;;5020789;28;20053;-74
2022/06/18 11:58:52;;;;;;;3.15;0.70;;;26.40;49.60;;;;;;5024215;28;20092;-74
2022/06/18 12:01:40;;;;;;;2.75;0.93;;;26.30;49.50;;;;;;5023708;28;20060;-75
2022/06/18 12:04:17;;;;;;;1.40;0.70;;;26.40;51.30;;;;;;5004076;28;20059;-75
2022/06/18 12:07:20;;;;;;;2.20;0.60;;;26.50;49.10;;;;;;5021228;28;22587;-75
2022/06/18 12:09:47;;;;;;;1.85;0.60;;;26.60;48.40;;;;;;5019005;28;20045;-75
2022/06/18 12:12:44;;;;;;;0.90;0.57;;;26.70;49.70;;;;;;5008411;28;20053;-76
2022/06/18 12:15:37;;;;;;;1.27;0.60;;;26.70;49.20;;;;;;5024803;28;20057;-74
2022/06/18 12:18:17;;;;;;;2.50;0.82;;;26.70;49.70;;;;;;5008533;28;20772;-75
2022/06/18 12:20:59;;;;;;;3.03;0.70;;;26.80;50.20;;;;;;5008378;28;20048;-74
2022/06/18 12:23:40;;;;;;;1.55;0.80;;;26.60;49.20;;;;;;5002320;28;20086;-74
2022/06/18 12:26:16;;;;;;;1.65;0.60;;;26.60;49.10;;;;;;4989085;28;20050;-74
2022/06/18 12:29:07;;;;;;;2.47;0.70;;;26.60;48.80;;;;;;5009495;28;20053;-73
2022/06/18 12:32:07;;;;;;;1.95;1.20;;;26.70;48.30;;;;;;5005652;28;20067;-74
2022/06/18 12:34:47;;;;;;;2.22;0.82;;;26.60;48.30;;;;;;5009823;28;20724;-74
2022/06/18 12:37:38;;;;;;;2.45;1.15;;;26.70;48.20;;;;;;4998278;28;20433;-75
2022/06/18 12:40:20;;;;;;;1.35;0.63;;;26.80;48.10;;;;;;5021953;28;20045;-75
2022/06/18 12:42:53;;;;;;;2.85;0.77;;;26.50;48.00;;;;;;5011039;28;20370;-74
2022/06/18 12:45:26;;;;;;;1.00;0.50;;;26.40;46.60;;;;;;4999442;28;20064;-75
2022/06/18 12:48:13;;;;;;;1.67;0.93;;;26.20;47.30;;;;;;5013994;28;20131;-75
2022/06/18 12:50:52;;;;;;;1.00;0.65;;;26.50;49.10;;;;;;5013511;28;20046;-74
2022/06/18 12:53:41;;;;;;;2.80;1.13;;;26.60;50.10;;;;;;5012382;28;20044;-74
2022/06/18 12:56:39;;;;;;;1.63;0.77;;;26.60;47.10;;;;;;5003480;28;20168;-75
2022/06/18 12:59:33;;;;;;;2.15;0.95;;;26.70;49.60;;;;;;5002206;28;20061;-74
2022/06/18 13:02:26;;;;;;;1.42;0.80;;;26.80;47.50;;;;;;5006760;28;23798;-73
2022/06/18 13:05:12;;;;;;;1.15;0.77;;;26.70;47.70;;;;;;5011452;28;20060;-74
2022/06/18 13:08:10;;;;;;;0.95;0.50;;;26.70;49.30;;;;;;5034094;28;20059;-74
2022/06/18 13:10:55;;;;;;;3.25;0.70;;;26.80;47.80;;;;;;5025876;28;20056;-75
2022/06/18 13:13:48;;;;;;;2.85;0.80;;;26.60;49.40;;;;;;5009176;28;20045;-73
2022/06/18 13:16:26;;;;;;;2.08;0.50;;;26.80;48.80;;;;;;5010636;28;20060;-73
2022/06/18 13:19:37;;;;;;;3.45;1.00;;;26.80;50.40;;;;;;4998069;28;20057;-73
2022/06/18 13:22:05;;;;;;;2.05;0.50;;;27.00;49.10;;;;;;4988815;28;20054;-73
2022/06/18 13:31:11;;;;;;;1.45;0.50;;;27.00;48.20;;;;;;5002277;28;20639;-75
2022/06/18 13:33:45;;;;;;;1.70;0.90;;;27.00;47.10;;;;;;5006052;28;20049;-74
2022/06/18 13:36:37;;;;;;;0.90;0.63;;;26.90;48.00;;;;;;5006145;28;20136;-75
2022/06/18 13:39:39;;;;;;;0.88;0.63;;;26.90;47.50;;;;;;5001217;28;20189;-76
2022/06/18 13:42:47;;;;;;;1.58;0.70;;;26.90;47.20;;;;;;5001021;28;20057;-75
2022/06/18 13:45:36;;;;;;;3.80;1.00;;;26.80;48.10;;;;;;5031960;28;22487;-73
2022/06/18 13:48:09;;;;;;;1.30;0.95;;;26.90;48.00;;;;;;5033023;28;20823;-73
2022/06/18 13:50:46;;;;;;;1.02;0.60;;;26.90;47.70;;;;;;5011589;28;21044;-73
2022/06/18 13:53:42;;;;;;;0.95;0.60;;;26.90;48.60;;;;;;4999346;28;20060;-73